Time;durP1;ratioP1;P1;durP2;ratioP2;P2;SDS_P1;SDS_P2;PMS_P1;PMS_P2;Temp;Humidity;BMP_temperature;BMP_pressure;BME280_temperature;BME280_humidity;BME280_pressure;Samples;Min_cycle;Max_cycle;Signal;HPM_P1;HPM_P2
2022/03/01 00:02:22;;;;;;;0.22;0.20;;;;;;;;;;5073857;28;20028;-62
2022/03/01 00:04:48;;;;;;;1.08;0.98;;;;;;;;;;5073290;28;20041;-64
2022/03/01 00:07:13;;;;;;;2.05;1.48;;;;;;;;;;5073334;28;20032;-63
2022/03/01 00:09:39;;;;;;;2.17;0.82;;;;;;;;;;5055195;28;20033;-62
2022/03/01 00:12:04;;;;;;;2.58;1.50;;;;;;;;;;5072544;28;20086;-65
2022/03/01 00:14:30;;;;;;;1.42;1.33;;;;;;;;;;5071772;28;20037;-65
2022/03/01 00:16:55;;;;;;;1.33;0.70;;;;;;;;;;5072265;28;20033;-63
2022/03/01 00:19:21;;;;;;;0.10;0.10;;;;;;;;;;5074539;28;20040;-61
2022/03/01 00:21:46;;;;;;;0.10;0.10;;;;;;;;;;5073528;28;20036;-63
2022/03/01 00:24:12;;;;;;;0.10;0.10;;;;;;;;;;5055298;28;20069;-63
2022/03/01 00:26:37;;;;;;;0.10;0.10;;;;;;;;;;5073967;28;20037;-62
2022/03/01 00:29:04;;;;;;;1.88;1.77;;;;;;;;;;5073747;28;20113;-62
2022/03/01 00:31:31;;;;;;;0.30;0.30;;;;;;;;;;5055239;28;20471;-62
2022/03/01 00:33:56;;;;;;;0.10;0.10;;;;;;;;;;5094137;28;20031;-62
2022/03/01 00:36:22;;;;;;;0.15;0.15;;;;;;;;;;5094510;28;20036;-61
2022/03/01 00:38:47;;;;;;;0.10;0.10;;;;;;;;;;5094189;28;20040;-61
2022/03/01 00:41:13;;;;;;;17.90;16.45;;;;;;;;;;5094605;28;20068;-61
2022/03/01 00:43:38;;;;;;;0.10;0.10;;;;;;;;;;5094119;28;20024;-62
2022/03/01 00:46:04;;;;;;;0.20;0.20;;;;;;;;;;5094393;28;20043;-62
2022/03/01 00:48:29;;;;;;;0.40;0.40;;;;;;;;;;5094303;28;20028;-62
2022/03/01 00:50:55;;;;;;;0.40;0.40;;;;;;;;;;5094459;28;20130;-63
2022/03/01 00:53:20;;;;;;;0.85;0.85;;;;;;;;;;5093832;28;20036;-62
2022/03/01 00:55:46;;;;;;;0.10;0.10;;;;;;;;;;5059772;28;20055;-61
2022/03/01 00:58:11;;;;;;;0.35;0.35;;;;;;;;;;5094152;28;20028;-62
2022/03/01 01:00:37;;;;;;;0.10;0.10;;;;;;;;;;5093693;28;20016;-62
2022/03/01 01:03:03;;;;;;;0.63;0.63;;;;;;;;;;5075677;28;20028;-62
2022/03/01 01:05:28;;;;;;;0.50;0.50;;;;;;;;;;5075787;28;20494;-62
2022/03/01 01:07:54;;;;;;;0.93;0.85;;;;;;;;;;5092868;28;20035;-62
2022/03/01 01:10:20;;;;;;;4.03;1.55;;;;;;;;;;5058091;28;20032;-63
2022/03/01 01:12:46;;;;;;;0.10;0.10;;;;;;;;;;5058673;28;20028;-64
2022/03/01 01:15:12;;;;;;;0.70;0.60;;;;;;;;;;5076031;28;20023;-62
2022/03/01 01:17:37;;;;;;;0.13;0.13;;;;;;;;;;5094035;28;20061;-61
2022/03/01 01:20:05;;;;;;;0.25;0.25;;;;;;;;;;5094045;28;20122;-61
2022/03/01 01:22:39;;;;;;;0.73;0.73;;;;;;;;;;5093799;28;20468;-62
2022/03/01 01:25:14;;;;;;;1.40;1.30;;;;;;;;;;5058962;28;20051;-63
2022/03/01 01:27:40;;;;;;;1.10;0.40;;;;;;;;;;5075636;28;20361;-62
2022/03/01 01:30:07;;;;;;;0.40;0.20;;;;;;;;;;5093664;28;20088;-62
2022/03/01 01:32:33;;;;;;;0.10;0.10;;;;;;;;;;5058780;28;20099;-61
2022/03/01 01:34:59;;;;;;;0.10;0.10;;;;;;;;;;5093067;28;20030;-62
2022/03/01 01:37:25;;;;;;;0.10;0.10;;;;;;;;;;5075308;28;20379;-62
2022/03/01 01:39:50;;;;;;;0.10;0.10;;;;;;;;;;5093646;28;20442;-63
2022/03/01 01:42:16;;;;;;;0.10;0.10;;;;;;;;;;5093698;28;20032;-63
2022/03/01 01:44:42;;;;;;;0.20;0.20;;;;;;;;;;5093351;28;20122;-62
2022/03/01 01:47:08;;;;;;;0.32;0.32;;;;;;;;;;5058707;28;20082;-60
2022/03/01 01:49:34;;;;;;;0.22;0.20;;;;;;;;;;5093465;28;20383;-61
2022/03/01 01:51:59;;;;;;;0.10;0.10;;;;;;;;;;5075189;28;20043;-62
2022/03/01 01:54:25;;;;;;;0.52;0.50;;;;;;;;;;5093246;28;20548;-61
2022/03/01 01:56:50;;;;;;;0.25;0.25;;;;;;;;;;5093327;28;20020;-61
2022/03/01 01:59:16;;;;;;;0.77;0.77;;;;;;;;;;5074885;28;20552;-62
2022/03/01 02:01:41;;;;;;;0.10;0.10;;;;;;;;;;5092929;28;20036;-61
2022/03/01 02:04:07;;;;;;;0.30;0.30;;;;;;;;;;5092909;28;20068;-62
2022/03/01 02:06:35;;;;;;;0.20;0.20;;;;;;;;;;5092882;28;20032;-62
2022/03/01 02:09:01;;;;;;;0.10;0.10;;;;;;;;;;5058331;28;20070;-61
2022/03/01 02:11:27;;;;;;;0.10;0.10;;;;;;;;;;5074598;28;20047;-60
2022/03/01 02:13:52;;;;;;;0.20;0.20;;;;;;;;;;5058341;28;20032;-60
2022/03/01 02:16:18;;;;;;;0.10;0.10;;;;;;;;;;5074832;28;20043;-61
2022/03/01 02:18:44;;;;;;;0.10;0.10;;;;;;;;;;5092894;28;20036;-62
2022/03/01 02:21:09;;;;;;;2.38;2.17;;;;;;;;;;5057899;28;20034;-62
2022/03/01 02:23:35;;;;;;;0.30;0.30;;;;;;;;;;5058349;28;20115;-61
2022/03/01 02:26:00;;;;;;;0.20;0.20;;;;;;;;;;5092440;28;20032;-61
2022/03/01 02:28:26;;;;;;;0.80;0.80;;;;;;;;;;5092968;28;20127;-62
2022/03/01 02:30:51;;;;;;;1.02;1.02;;;;;;;;;;5092850;28;20384;-62
2022/03/01 02:33:17;;;;;;;2.22;0.93;;;;;;;;;;5092710;28;20099;-62
2022/03/01 02:35:42;;;;;;;0.73;0.60;;;;;;;;;;5092373;28;20463;-62
2022/03/01 02:38:08;;;;;;;0.30;0.30;;;;;;;;;;5057850;28;20039;-61
2022/03/01 02:40:33;;;;;;;0.10;0.10;;;;;;;;;;5074731;28;20085;-62
2022/03/01 02:42:59;;;;;;;0.43;0.43;;;;;;;;;;5092822;28;20044;-61
2022/03/01 02:45:24;;;;;;;0.40;0.40;;;;;;;;;;5092506;28;20433;-61
2022/03/01 02:47:50;;;;;;;0.22;0.22;;;;;;;;;;5092701;28;20032;-61
2022/03/01 02:50:16;;;;;;;4.03;1.77;;;;;;;;;;5092508;28;20391;-62
2022/03/01 02:52:42;;;;;;;0.10;0.10;;;;;;;;;;5057988;28;20448;-61
2022/03/01 02:55:08;;;;;;;0.52;0.40;;;;;;;;;;5092906;28;20056;-62
2022/03/01 02:57:33;;;;;;;0.52;0.47;;;;;;;;;;5092456;28;20492;-62
2022/03/01 02:59:59;;;;;;;0.77;0.68;;;;;;;;;;5074397;28;20119;-62
2022/03/01 03:02:24;;;;;;;0.45;0.45;;;;;;;;;;5092399;28;20068;-63
2022/03/01 03:04:50;;;;;;;1.55;0.65;;;;;;;;;;5091998;28;20080;-63
2022/03/01 03:07:15;;;;;;;0.93;0.93;;;;;;;;;;5074029;28;20047;-63
2022/03/01 03:09:41;;;;;;;0.32;0.32;;;;;;;;;;5092305;28;20376;-62
2022/03/01 03:12:08;;;;;;;0.10;0.10;;;;;;;;;;5092483;28;20036;-62
2022/03/01 03:14:34;;;;;;;0.20;0.20;;;;;;;;;;5073275;28;20379;-63
2022/03/01 03:17:00;;;;;;;0.60;0.60;;;;;;;;;;5056429;28;20510;-61
2022/03/01 03:19:25;;;;;;;0.52;0.30;;;;;;;;;;5092394;28;20032;-61
2022/03/01 03:21:51;;;;;;;0.10;0.10;;;;;;;;;;5091803;28;20044;-61
2022/03/01 03:24:17;;;;;;;0.85;0.63;;;;;;;;;;5092174;28;20040;-61
2022/03/01 03:26:42;;;;;;;3.50;2.28;;;;;;;;;;5057458;28;20475;-61
2022/03/01 03:29:08;;;;;;;0.22;0.22;;;;;;;;;;5092101;28;20036;-61
2022/03/01 03:31:35;;;;;;;0.32;0.15;;;;;;;;;;5074282;28;20044;-61
2022/03/01 03:34:01;;;;;;;0.20;0.20;;;;;;;;;;5057789;28;20039;-62
2022/03/01 03:36:26;;;;;;;0.10;0.10;;;;;;;;;;5095385;28;20390;-64
2022/03/01 03:38:51;;;;;;;0.10;0.10;;;;;;;;;;5095424;28;20039;-61
2022/03/01 03:41:17;;;;;;;0.52;0.52;;;;;;;;;;5077611;28;20035;-62
2022/03/01 03:43:42;;;;;;;0.30;0.28;;;;;;;;;;5095696;28;20036;-61
2022/03/01 03:46:08;;;;;;;0.65;0.57;;;;;;;;;;5095360;28;20055;-62
2022/03/01 03:48:33;;;;;;;0.40;0.32;;;;;;;;;;5095314;28;20101;-62
2022/03/01 03:50:59;;;;;;;0.35;0.35;;;;;;;;;;5077228;28;20541;-61
2022/03/01 03:53:24;;;;;;;0.30;0.30;;;;;;;;;;5077300;28;20032;-61
2022/03/01 03:55:50;;;;;;;0.10;0.10;;;;;;;;;;5077406;28;20036;-61
2022/03/01 03:58:15;;;;;;;0.28;0.28;;;;;;;;;;5095326;28;20023;-61
2022/03/01 04:00:40;;;;;;;1.15;0.85;;;;;;;;;;5095210;28;20495;-61
2022/03/01 04:03:07;;;;;;;0.63;0.63;;;;;;;;;;5094350;28;20077;-61
2022/03/01 04:05:32;;;;;;;0.47;0.45;;;;;;;;;;5059691;28;20062;-62
2022/03/01 04:07:58;;;;;;;2.35;0.98;;;;;;;;;;5094496;28;20107;-62
2022/03/01 04:10:23;;;;;;;0.55;0.40;;;;;;;;;;5094556;28;20090;-61
2022/03/01 04:12:49;;;;;;;1.48;1.38;;;;;;;;;;5094565;28;20063;-62
2022/03/01 04:15:14;;;;;;;4.97;1.75;;;;;;;;;;5076464;28;20054;-62
2022/03/01 04:17:40;;;;;;;0.20;0.20;;;;;;;;;;5094178;28;20141;-61
2022/03/01 04:20:06;;;;;;;2.58;1.30;;;;;;;;;;5094330;28;20086;-64
2022/03/01 04:22:31;;;;;;;1.27;0.63;;;;;;;;;;5076270;28;20036;-63
2022/03/01 04:24:57;;;;;;;3.03;2.83;;;;;;;;;;5076274;28;20135;-62
2022/03/01 04:27:23;;;;;;;1.27;1.10;;;;;;;;;;5076375;28;20395;-61
2022/03/01 04:29:48;;;;;;;0.25;0.25;;;;;;;;;;5093859;28;20708;-63
2022/03/01 04:32:14;;;;;;;0.57;0.35;;;;;;;;;;5092744;28;20032;-62
2022/03/01 04:34:41;;;;;;;0.10;0.10;;;;;;;;;;5092427;28;20028;-64
2022/03/01 04:37:06;;;;;;;0.30;0.30;;;;;;;;;;5058957;28;20051;-62
2022/03/01 04:39:32;;;;;;;0.20;0.20;;;;;;;;;;5093959;28;20032;-63
2022/03/01 04:41:58;;;;;;;2.60;0.75;;;;;;;;;;5094097;28;20035;-62
2022/03/01 04:44:23;;;;;;;0.20;0.20;;;;;;;;;;5094129;28;20024;-62
2022/03/01 04:46:49;;;;;;;0.88;0.88;;;;;;;;;;5058122;28;20100;-62
2022/03/01 04:49:14;;;;;;;0.10;0.10;;;;;;;;;;5093910;28;20090;-62
2022/03/01 04:51:40;;;;;;;0.10;0.10;;;;;;;;;;5093644;28;20036;-61
2022/03/01 04:54:06;;;;;;;0.10;0.10;;;;;;;;;;5059208;28;20032;-62
2022/03/01 04:56:32;;;;;;;0.10;0.10;;;;;;;;;;5059365;28;20036;-63
2022/03/01 04:58:57;;;;;;;0.30;0.30;;;;;;;;;;5093133;28;20054;-62
2022/03/01 05:01:23;;;;;;;0.20;0.20;;;;;;;;;;5093861;28;20054;-61
2022/03/01 05:03:48;;;;;;;0.75;0.75;;;;;;;;;;5093723;28;20103;-61
2022/03/01 05:06:14;;;;;;;0.10;0.10;;;;;;;;;;5093442;28;20039;-61
2022/03/01 05:08:41;;;;;;;2.05;0.32;;;;;;;;;;5093555;28;20062;-65
2022/03/01 05:11:07;;;;;;;0.95;0.50;;;;;;;;;;5075430;28;20542;-62
2022/03/01 05:13:32;;;;;;;0.10;0.10;;;;;;;;;;5093829;28;20107;-62
2022/03/01 05:15:58;;;;;;;0.32;0.32;;;;;;;;;;5074810;28;20380;-66
2022/03/01 05:18:23;;;;;;;0.10;0.10;;;;;;;;;;5091728;28;20051;-61
2022/03/01 05:20:49;;;;;;;0.25;0.25;;;;;;;;;;5092877;28;20040;-63
2022/03/01 05:23:15;;;;;;;0.10;0.10;;;;;;;;;;5074689;28;20034;-65
2022/03/01 05:25:40;;;;;;;0.10;0.10;;;;;;;;;;5092867;28;20044;-63
2022/03/01 05:28:06;;;;;;;0.10;0.10;;;;;;;;;;5092243;28;20039;-63
2022/03/01 05:30:32;;;;;;;0.10;0.10;;;;;;;;;;5093366;28;20040;-65
2022/03/01 05:32:59;;;;;;;0.10;0.10;;;;;;;;;;5073514;28;20024;-61
2022/03/01 05:35:25;;;;;;;1.27;1.27;;;;;;;;;;5091263;28;20121;-63
2022/03/01 05:37:55;;;;;;;0.10;0.10;;;;;;;;;;5056342;28;20035;-62
2022/03/01 05:40:25;;;;;;;0.15;0.15;;;;;;;;;;5056285;28;20055;-62
2022/03/01 05:42:51;;;;;;;0.10;0.10;;;;;;;;;;5058312;28;20089;-61
2022/03/01 05:45:17;;;;;;;0.13;0.13;;;;;;;;;;5093107;28;20127;-61
2022/03/01 05:47:43;;;;;;;0.10;0.10;;;;;;;;;;5092175;28;20432;-62
2022/03/01 05:50:09;;;;;;;0.10;0.10;;;;;;;;;;5056000;28;20059;-61
2022/03/01 05:52:34;;;;;;;0.10;0.10;;;;;;;;;;5057470;28;20407;-61
2022/03/01 05:55:00;;;;;;;0.10;0.10;;;;;;;;;;5093095;28;20028;-63
2022/03/01 05:57:28;;;;;;;9.65;1.35;;;;;;;;;;5092821;28;20102;-61
2022/03/01 05:59:54;;;;;;;0.20;0.20;;;;;;;;;;5058150;28;20040;-63
2022/03/01 06:02:20;;;;;;;0.10;0.10;;;;;;;;;;5090961;28;20758;-63
2022/03/01 06:04:45;;;;;;;0.45;0.30;;;;;;;;;;5091117;28;20031;-66
2022/03/01 06:07:11;;;;;;;0.20;0.20;;;;;;;;;;5056821;28;20442;-63
2022/03/01 06:09:36;;;;;;;0.10;0.10;;;;;;;;;;5091689;28;20050;-63
2022/03/01 06:12:01;;;;;;;0.10;0.10;;;;;;;;;;5092298;28;20423;-63
2022/03/01 06:14:27;;;;;;;0.10;0.10;;;;;;;;;;5073591;28;20471;-64
2022/03/01 06:16:52;;;;;;;0.10;0.10;;;;;;;;;;5092053;28;20066;-63
2022/03/01 06:19:18;;;;;;;0.10;0.10;;;;;;;;;;5091475;28;20365;-65
2022/03/01 06:21:43;;;;;;;0.35;0.35;;;;;;;;;;5057011;28;20395;-63
2022/03/01 06:24:09;;;;;;;0.20;0.20;;;;;;;;;;5055810;28;20032;-64
2022/03/01 06:26:34;;;;;;;0.10;0.10;;;;;;;;;;5072841;28;20052;-65
2022/03/01 06:29:00;;;;;;;0.10;0.10;;;;;;;;;;5090103;28;20083;-66
2022/03/01 06:31:25;;;;;;;0.20;0.20;;;;;;;;;;5091538;28;20043;-63
2022/03/01 06:33:51;;;;;;;0.10;0.10;;;;;;;;;;5091086;28;20686;-63
2022/03/01 06:36:16;;;;;;;0.10;0.10;;;;;;;;;;5088686;28;20403;-62
2022/03/01 06:38:41;;;;;;;0.10;0.10;;;;;;;;;;5073341;28;20036;-62
2022/03/01 06:41:07;;;;;;;0.10;0.10;;;;;;;;;;5089823;28;20044;-62
2022/03/01 06:43:32;;;;;;;0.10;0.10;;;;;;;;;;5090495;28;20102;-62
2022/03/01 06:45:58;;;;;;;0.10;0.10;;;;;;;;;;5091531;28;20036;-62
2022/03/01 06:48:23;;;;;;;0.10;0.10;;;;;;;;;;5091245;28;20479;-63
2022/03/01 06:50:49;;;;;;;0.10;0.10;;;;;;;;;;5091419;28;20040;-62
2022/03/01 06:53:14;;;;;;;0.10;0.10;;;;;;;;;;5091346;28;20056;-62
2022/03/01 06:55:41;;;;;;;0.10;0.10;;;;;;;;;;5091311;28;20039;-63
2022/03/01 06:58:06;;;;;;;0.10;0.10;;;;;;;;;;5071748;28;20036;-65
2022/03/01 07:00:32;;;;;;;0.10;0.10;;;;;;;;;;5090055;28;20035;-63
2022/03/01 07:02:57;;;;;;;0.17;0.17;;;;;;;;;;5090125;28;20063;-64
2022/03/01 07:05:23;;;;;;;0.10;0.10;;;;;;;;;;5089807;28;20040;-64
2022/03/01 07:07:49;;;;;;;0.10;0.10;;;;;;;;;;5072831;28;20447;-62
2022/03/01 07:10:15;;;;;;;0.15;0.15;;;;;;;;;;5075341;28;20067;-62
2022/03/01 07:12:41;;;;;;;0.10;0.10;;;;;;;;;;5059791;28;20028;-64
2022/03/01 07:15:07;;;;;;;0.10;0.10;;;;;;;;;;5094953;28;20044;-62
2022/03/01 07:17:32;;;;;;;0.40;0.40;;;;;;;;;;5095039;28;20027;-64
2022/03/01 07:19:58;;;;;;;0.10;0.10;;;;;;;;;;5094706;28;20040;-63
2022/03/01 07:22:24;;;;;;;0.10;0.10;;;;;;;;;;5059686;28;20043;-63
2022/03/01 07:24:49;;;;;;;0.13;0.13;;;;;;;;;;5075581;28;20148;-64
2022/03/01 07:27:15;;;;;;;0.10;0.10;;;;;;;;;;5092930;28;20047;-65
2022/03/01 07:29:40;;;;;;;0.10;0.10;;;;;;;;;;5094791;28;20039;-64
2022/03/01 07:32:06;;;;;;;0.10;0.10;;;;;;;;;;5076161;28;20062;-64
2022/03/01 07:34:32;;;;;;;0.10;0.10;;;;;;;;;;5094413;28;20383;-64
2022/03/01 07:36:59;;;;;;;0.10;0.10;;;;;;;;;;5094513;28;20035;-65
2022/03/01 07:39:24;;;;;;;0.10;0.10;;;;;;;;;;5076458;28;20047;-66
2022/03/01 07:41:50;;;;;;;0.10;0.10;;;;;;;;;;5094403;28;20031;-64
2022/03/01 07:44:16;;;;;;;0.15;0.15;;;;;;;;;;5094159;28;20035;-63
2022/03/01 07:46:41;;;;;;;0.10;0.10;;;;;;;;;;5094544;28;20036;-65
2022/03/01 07:49:07;;;;;;;0.10;0.10;;;;;;;;;;5094423;28;20392;-64
2022/03/01 07:51:32;;;;;;;1.30;1.20;;;;;;;;;;5094253;28;20040;-64
2022/03/01 07:53:58;;;;;;;0.50;0.50;;;;;;;;;;5094186;28;20059;-64
2022/03/01 07:56:25;;;;;;;0.10;0.10;;;;;;;;;;5092144;28;20036;-64
2022/03/01 07:58:51;;;;;;;0.10;0.10;;;;;;;;;;5093661;28;20036;-64
2022/03/01 08:01:16;;;;;;;0.20;0.20;;;;;;;;;;5094221;28;20046;-65
2022/03/01 08:03:42;;;;;;;0.10;0.10;;;;;;;;;;5093974;28;20036;-64
2022/03/01 08:06:07;;;;;;;0.10;0.10;;;;;;;;;;5093408;28;20032;-64
2022/03/01 08:08:34;;;;;;;0.20;0.20;;;;;;;;;;5093928;28;20032;-64
2022/03/01 08:10:59;;;;;;;0.10;0.10;;;;;;;;;;5093934;28;20020;-64
2022/03/01 08:13:25;;;;;;;0.13;0.13;;;;;;;;;;5094006;28;20383;-63
2022/03/01 08:15:51;;;;;;;0.10;0.10;;;;;;;;;;5093844;28;20028;-66
2022/03/01 08:18:16;;;;;;;0.10;0.10;;;;;;;;;;5093732;28;20425;-64
2022/03/01 08:20:42;;;;;;;0.10;0.10;;;;;;;;;;5092024;28;20384;-64
2022/03/01 08:23:07;;;;;;;0.20;0.20;;;;;;;;;;5093192;28;20057;-63
2022/03/01 08:25:33;;;;;;;0.13;0.13;;;;;;;;;;5093851;28;20488;-63
2022/03/01 08:27:59;;;;;;;0.43;0.40;;;;;;;;;;5093898;28;20039;-64
2022/03/01 08:30:24;;;;;;;0.20;0.20;;;;;;;;;;5093656;28;20031;-64
2022/03/01 08:32:50;;;;;;;0.13;0.13;;;;;;;;;;5093726;28;20040;-64
2022/03/01 08:35:15;;;;;;;0.10;0.10;;;;;;;;;;5093564;28;20039;-64
2022/03/01 08:37:41;;;;;;;0.15;0.15;;;;;;;;;;5093536;28;20028;-64
2022/03/01 08:40:07;;;;;;;0.77;0.77;;;;;;;;;;5093445;28;20122;-65
2022/03/01 08:42:33;;;;;;;0.20;0.20;;;;;;;;;;5092397;28;20028;-64
2022/03/01 08:44:58;;;;;;;0.20;0.20;;;;;;;;;;5090128;28;20105;-65
2022/03/01 08:47:26;;;;;;;0.20;0.20;;;;;;;;;;5091406;28;20027;-64
2022/03/01 08:49:51;;;;;;;0.30;0.30;;;;;;;;;;5091434;28;20040;-65
2022/03/01 08:52:17;;;;;;;0.60;0.50;;;;;;;;;;5092983;28;20036;-64
2022/03/01 08:54:42;;;;;;;0.10;0.10;;;;;;;;;;5093407;28;20032;-63
2022/03/01 08:57:08;;;;;;;0.10;0.10;;;;;;;;;;5093395;28;20064;-64
2022/03/01 08:59:34;;;;;;;0.10;0.10;;;;;;;;;;5093318;28;20035;-64
2022/03/01 09:01:59;;;;;;;0.55;0.55;;;;;;;;;;5093384;28;20043;-64
2022/03/01 09:04:25;;;;;;;0.50;0.50;;;;;;;;;;5092902;28;20118;-65
2022/03/01 09:06:50;;;;;;;0.47;0.47;;;;;;;;;;5092846;28;20119;-63
2022/03/01 09:09:16;;;;;;;0.20;0.20;;;;;;;;;;5091385;28;20032;-64
2022/03/01 09:11:41;;;;;;;0.20;0.20;;;;;;;;;;5091440;28;20145;-63
2022/03/01 09:14:07;;;;;;;0.20;0.20;;;;;;;;;;5092729;28;20487;-64
2022/03/01 09:16:32;;;;;;;7.97;2.85;;;;;;;;;;5092028;28;20079;-64
2022/03/01 09:18:58;;;;;;;0.20;0.20;;;;;;;;;;5093068;28;20035;-63
2022/03/01 09:21:23;;;;;;;0.28;0.28;;;;;;;;;;5092592;28;20153;-64
2022/03/01 09:23:48;;;;;;;1.00;0.65;;;;;;;;;;5092738;28;20580;-64
2022/03/01 09:26:15;;;;;;;0.85;0.70;;;;;;;;;;5092271;28;20534;-65
2022/03/01 09:28:41;;;;;;;0.20;0.20;;;;;;;;;;5092829;28;20038;-64
2022/03/01 09:31:07;;;;;;;0.32;0.32;;;;;;;;;;5092833;28;20118;-63
2022/03/01 09:33:33;;;;;;;0.30;0.30;;;;;;;;;;5091198;28;20413;-64
2022/03/01 09:35:59;;;;;;;0.30;0.30;;;;;;;;;;5091070;28;20024;-64
2022/03/01 09:38:24;;;;;;;0.25;0.25;;;;;;;;;;5090561;28;20110;-64
2022/03/01 09:40:50;;;;;;;0.30;0.30;;;;;;;;;;5090444;28;20059;-64
2022/03/01 09:43:16;;;;;;;0.20;0.20;;;;;;;;;;5090777;28;20024;-65
2022/03/01 09:45:42;;;;;;;0.35;0.35;;;;;;;;;;5092346;28;20036;-65
2022/03/01 09:48:07;;;;;;;0.68;0.68;;;;;;;;;;5092373;28;20036;-64
2022/03/01 09:50:33;;;;;;;0.20;0.20;;;;;;;;;;5092113;28;20472;-65
2022/03/01 09:52:59;;;;;;;9.82;4.65;;;;;;;;;;5092575;28;20032;-65
2022/03/01 09:55:25;;;;;;;0.40;0.40;;;;;;;;;;5092341;28;20024;-65
2022/03/01 09:57:51;;;;;;;0.20;0.20;;;;;;;;;;5092493;28;20039;-65
2022/03/01 10:00:16;;;;;;;0.30;0.30;;;;;;;;;;5091715;28;20127;-65
2022/03/01 10:02:43;;;;;;;0.20;0.20;;;;;;;;;;5092145;28;20116;-65
2022/03/01 10:05:09;;;;;;;0.20;0.20;;;;;;;;;;5091917;28;20036;-64
2022/03/01 10:07:34;;;;;;;0.22;0.22;;;;;;;;;;5090760;28;20490;-65
2022/03/01 10:10:08;;;;;;;0.20;0.20;;;;;;;;;;5091904;28;20032;-65
2022/03/01 10:12:33;;;;;;;0.30;0.30;;;;;;;;;;5092013;28;20375;-64
2022/03/01 10:15:03;;;;;;;0.30;0.30;;;;;;;;;;5091947;28;20040;-65
2022/03/01 10:17:28;;;;;;;;;;;;;;;;;;5092472;28;20063;-64
2022/03/01 10:20:00;;;;;;;2.10;1.30;;;;;;;;;;5091778;28;20335;-65
2022/03/01 10:22:26;;;;;;;0.20;0.20;;;;;;;;;;5091656;28;20040;-64
2022/03/01 10:24:51;;;;;;;0.52;0.52;;;;;;;;;;5091784;28;20514;-65
2022/03/01 10:27:26;;;;;;;0.65;0.50;;;;;;;;;;5091583;28;20051;-65
2022/03/01 10:29:51;;;;;;;0.47;0.47;;;;;;;;;;5091858;28;20123;-64
2022/03/01 10:32:17;;;;;;;2.17;1.08;;;;;;;;;;5091674;28;20118;-69
2022/03/01 10:34:55;;;;;;;1.10;0.93;;;;;;;;;;5090239;28;20059;-69
2022/03/01 10:37:26;;;;;;;0.40;0.40;;;;;;;;;;5091659;28;20038;-68
2022/03/01 10:39:51;;;;;;;0.57;0.57;;;;;;;;;;5091743;28;20434;-71
2022/03/01 10:42:25;;;;;;;0.35;0.35;;;;;;;;;;5091608;28;20119;-70
2022/03/01 10:44:56;;;;;;;0.20;0.20;;;;;;;;;;5090207;28;20089;-70
2022/03/01 10:47:21;;;;;;;0.40;0.40;;;;;;;;;;5090536;28;20062;-69
2022/03/01 10:49:47;;;;;;;0.30;0.30;;;;;;;;;;5091509;28;20036;-70
2022/03/01 10:52:14;;;;;;;0.30;0.30;;;;;;;;;;5090569;28;20032;-70
2022/03/01 10:54:40;;;;;;;0.30;0.30;;;;;;;;;;5089597;28;20024;-70
2022/03/01 10:57:26;;;;;;;0.20;0.20;;;;;;;;;;5088083;28;20032;-70
2022/03/01 10:59:52;;;;;;;0.30;0.30;;;;;;;;;;5088532;28;20071;-67
2022/03/01 11:02:17;;;;;;;0.30;0.30;;;;;;;;;;5089135;28;20032;-72
2022/03/01 11:04:43;;;;;;;0.20;0.20;;;;;;;;;;5088018;28;20047;-71
2022/03/01 11:07:10;;;;;;;0.30;0.30;;;;;;;;;;5090120;28;20024;-68
2022/03/01 11:09:39;;;;;;;0.30;0.30;;;;;;;;;;5077957;28;20032;-70
2022/03/01 11:12:06;;;;;;;0.30;0.30;;;;;;;;;;5099730;28;20028;-72
2022/03/01 11:14:50;;;;;;;0.40;0.40;;;;;;;;;;5058887;28;20044;-69
2022/03/01 11:17:36;;;;;;;0.50;0.50;;;;;;;;;;5066184;28;20039;-70
2022/03/01 11:20:01;;;;;;;0.40;0.40;;;;;;;;;;5076770;28;20045;-69
2022/03/01 11:22:30;;;;;;;0.43;0.43;;;;;;;;;;5068357;28;20047;-70
2022/03/01 11:24:55;;;;;;;0.50;0.50;;;;;;;;;;5052898;28;20605;-69
2022/03/01 11:27:23;;;;;;;0.40;0.40;;;;;;;;;;5053221;28;20258;-68
2022/03/01 11:29:49;;;;;;;0.90;0.40;;;;;;;;;;5071476;28;20085;-71
2022/03/01 11:32:17;;;;;;;0.40;0.40;;;;;;;;;;5069937;28;20373;-70
2022/03/01 11:34:44;;;;;;;0.60;0.60;;;;;;;;;;5067673;28;20047;-71
2022/03/01 11:37:18;;;;;;;0.35;0.35;;;;;;;;;;5067975;28;20072;-72
2022/03/01 11:39:52;;;;;;;0.40;0.40;;;;;;;;;;5051292;28;20029;-71
2022/03/01 11:42:20;;;;;;;0.25;0.25;;;;;;;;;;5051563;28;20507;-71
2022/03/01 11:44:50;;;;;;;0.30;0.30;;;;;;;;;;5051060;28;20156;-71
2022/03/01 11:47:24;;;;;;;0.32;0.32;;;;;;;;;;5067830;28;20025;-70
2022/03/01 11:49:49;;;;;;;0.30;0.30;;;;;;;;;;5052823;28;20032;-70
2022/03/01 11:52:16;;;;;;;0.30;0.30;;;;;;;;;;5053216;28;20032;-69
2022/03/01 11:54:43;;;;;;;0.63;0.63;;;;;;;;;;5053420;28;20047;-70
2022/03/01 11:57:10;;;;;;;0.40;0.40;;;;;;;;;;5056822;28;20041;-70
2022/03/01 11:59:39;;;;;;;0.60;0.60;;;;;;;;;;5073464;28;20041;-70
2022/03/01 12:02:06;;;;;;;0.90;0.90;;;;;;;;;;5073358;28;20060;-70
2022/03/01 12:04:32;;;;;;;0.32;0.32;;;;;;;;;;5073565;28;20028;-70
2022/03/01 12:06:57;;;;;;;0.55;0.55;;;;;;;;;;5073385;28;20031;-71
2022/03/01 12:09:24;;;;;;;0.50;0.50;;;;;;;;;;5074531;28;20082;-70
2022/03/01 12:12:01;;;;;;;0.40;0.40;;;;;;;;;;5074067;28;20124;-69
2022/03/01 12:14:28;;;;;;;0.30;0.30;;;;;;;;;;5056480;28;20036;-69
2022/03/01 12:16:54;;;;;;;0.30;0.30;;;;;;;;;;5074320;28;20032;-69
2022/03/01 12:19:20;;;;;;;0.28;0.28;;;;;;;;;;5056314;28;20150;-69
2022/03/01 12:21:48;;;;;;;0.30;0.30;;;;;;;;;;5056044;28;20032;-70
2022/03/01 12:24:14;;;;;;;0.82;0.82;;;;;;;;;;5074316;28;20040;-69
2022/03/01 12:26:58;;;;;;;0.28;0.28;;;;;;;;;;5072956;28;20033;-69
2022/03/01 12:29:25;;;;;;;0.73;0.73;;;;;;;;;;5055881;28;20398;-70
2022/03/01 12:32:10;;;;;;;0.22;0.22;;;;;;;;;;5073663;28;20029;-71
2022/03/01 12:34:39;;;;;;;0.32;0.32;;;;;;;;;;5050331;28;20041;-70
2022/03/01 12:37:05;;;;;;;0.30;0.30;;;;;;;;;;5038749;28;20119;-70
2022/03/01 12:39:31;;;;;;;0.20;0.20;;;;;;;;;;5072728;28;20035;-69
2022/03/01 12:41:57;;;;;;;0.20;0.20;;;;;;;;;;5037980;28;20396;-71
2022/03/01 12:44:27;;;;;;;0.20;0.20;;;;;;;;;;5055475;28;20028;-68
2022/03/01 12:46:53;;;;;;;0.20;0.20;;;;;;;;;;5039057;28;20048;-69
2022/03/01 12:49:19;;;;;;;0.30;0.30;;;;;;;;;;5074051;28;20032;-69
2022/03/01 12:51:46;;;;;;;0.30;0.30;;;;;;;;;;5093981;28;20043;-69
2022/03/01 12:54:15;;;;;;;0.30;0.30;;;;;;;;;;5107618;28;20027;-70
2022/03/01 12:56:42;;;;;;;0.40;0.40;;;;;;;;;;5093705;28;20036;-71
2022/03/01 12:59:09;;;;;;;0.40;0.40;;;;;;;;;;5097200;28;20111;-70
2022/03/01 13:01:35;;;;;;;0.30;0.30;;;;;;;;;;5097574;28;20020;-71
2022/03/01 13:04:02;;;;;;;0.70;0.70;;;;;;;;;;5091691;28;20165;-70
2022/03/01 13:06:27;;;;;;;0.25;0.25;;;;;;;;;;5110387;28;20035;-70
2022/03/01 13:08:54;;;;;;;0.30;0.30;;;;;;;;;;5093704;28;20035;-70
2022/03/01 13:11:20;;;;;;;0.80;0.80;;;;;;;;;;5075924;28;20060;-70
2022/03/01 13:13:50;;;;;;;0.20;0.20;;;;;;;;;;5110253;28;20043;-70
2022/03/01 13:16:36;;;;;;;0.40;0.40;;;;;;;;;;5111233;28;20070;-70
2022/03/01 13:19:12;;;;;;;0.20;0.20;;;;;;;;;;5111326;28;20478;-69
2022/03/01 13:21:39;;;;;;;0.73;0.73;;;;;;;;;;5075134;28;20054;-70
2022/03/01 13:24:18;;;;;;;0.75;0.40;;;;;;;;;;5092542;28;20497;-71
2022/03/01 13:26:45;;;;;;;0.20;0.20;;;;;;;;;;5093141;28;20050;-71
2022/03/01 13:29:15;;;;;;;1.55;0.90;;;;;;;;;;5076558;28;20028;-71
2022/03/01 13:31:41;;;;;;;0.30;0.30;;;;;;;;;;5076639;28;20135;-71
2022/03/01 13:34:07;;;;;;;0.75;0.70;;;;;;;;;;5076282;28;20555;-70
2022/03/01 13:36:35;;;;;;;0.30;0.30;;;;;;;;;;5076151;28;20122;-70
2022/03/01 13:39:06;;;;;;;0.30;0.30;;;;;;;;;;5078753;28;20055;-71
2022/03/01 13:41:34;;;;;;;0.38;0.38;;;;;;;;;;5105523;28;20036;-70
2022/03/01 13:44:22;;;;;;;0.20;0.20;;;;;;;;;;5111804;28;20043;-71
2022/03/01 13:46:54;;;;;;;1.15;0.85;;;;;;;;;;5079727;28;20120;-70
2022/03/01 13:49:33;;;;;;;0.22;0.22;;;;;;;;;;5074576;28;20040;-70
2022/03/01 13:52:07;;;;;;;0.30;0.30;;;;;;;;;;5058491;28;20024;-70
2022/03/01 13:54:32;;;;;;;0.20;0.20;;;;;;;;;;5063409;28;20036;-69
2022/03/01 13:56:58;;;;;;;0.30;0.30;;;;;;;;;;5091480;28;20387;-69
2022/03/01 13:59:23;;;;;;;0.52;0.52;;;;;;;;;;5055498;28;20054;-70
2022/03/01 14:01:49;;;;;;;0.28;0.28;;;;;;;;;;5099289;28;20039;-69
2022/03/01 14:04:20;;;;;;;0.30;0.30;;;;;;;;;;5099487;28;20035;-69
2022/03/01 14:06:53;;;;;;;0.22;0.22;;;;;;;;;;5066286;28;20126;-69
2022/03/01 14:09:19;;;;;;;0.57;0.57;;;;;;;;;;5057733;28;20044;-70
2022/03/01 14:11:58;;;;;;;0.40;0.40;;;;;;;;;;5103688;28;20023;-69
2022/03/01 14:14:24;;;;;;;0.65;0.65;;;;;;;;;;5092657;28;20471;-69
2022/03/01 14:16:49;;;;;;;0.30;0.30;;;;;;;;;;5101463;28;20353;-69
2022/03/01 14:19:16;;;;;;;0.70;0.63;;;;;;;;;;5090709;28;20074;-69
2022/03/01 14:21:41;;;;;;;1.02;0.63;;;;;;;;;;5072187;28;20119;-70
2022/03/01 14:24:07;;;;;;;0.40;0.40;;;;;;;;;;5090669;28;20107;-68
2022/03/01 14:26:32;;;;;;;1.52;1.23;;;;;;;;;;5090541;28;20112;-69
2022/03/01 14:29:01;;;;;;;0.20;0.20;;;;;;;;;;5056001;28;20577;-70
2022/03/01 14:31:27;;;;;;;0.40;0.40;;;;;;;;;;5091035;28;20027;-69
2022/03/01 14:33:53;;;;;;;0.30;0.30;;;;;;;;;;5072701;28;20062;-69
2022/03/01 14:36:19;;;;;;;0.75;0.55;;;;;;;;;;5090840;28;20491;-69
2022/03/01 14:38:45;;;;;;;0.75;0.70;;;;;;;;;;5087183;28;20024;-69
2022/03/01 14:41:11;;;;;;;0.20;0.20;;;;;;;;;;5068718;28;20499;-67